Hackberry, Arizona
Current Conditions -  °F | °C
As of 11:51 PM on Friday 24 Oct 2014 (Local Time) from KIGM Reporting Station
Clear Clear  
Wind Chill: 66°   Ceiling: Unl
Heat Index: 66°   Visibility: NA
Dew Point: 37°   Wind: 12mph
Humidity: 34%   Direction: 130°SE
Pressure: 30.13"   Gusts: NA
Location:  35.37°N, 113.73°W
Report Text: KIGM 250651Z AUTO 13010KT CLR 19/03 A3013 RMK AO2 SLP137 T01890028 402890100 $
Loading
Personal Weather Stations






























Interactive Weather Map
Tropical Storm Tracking
New forecast layout! Learn more

10-Day Weather Forecast

Advertisements
Track Severe Weather on mobile